Time;durP1;ratioP1;P1;durP2;ratioP2;P2;SDS_P1;SDS_P2;PMS_P1;PMS_P2;Temp;Humidity;BMP_temperature;BMP_pressure;BME280_temperature;BME280_humidity;BME280_pressure;Samples;Min_cycle;Max_cycle;Signal;HPM_P1;HPM_P2
2024/04/03 00:00:53;;;;;;;2.65;1.30;;;11.60;99.90;;;;;;4950467;28;20042;-71
2024/04/03 00:03:19;;;;;;;3.28;1.17;;;11.60;99.90;;;;;;4948063;28;20031;-70
2024/04/03 00:05:45;;;;;;;3.17;1.20;;;11.60;99.90;;;;;;4950069;28;20073;-70
2024/04/03 00:08:11;;;;;;;3.53;1.30;;;11.60;99.90;;;;;;4948625;28;20741;-70
2024/04/03 00:10:38;;;;;;;2.05;1.10;;;11.70;99.90;;;;;;4949476;28;20339;-71
2024/04/03 00:13:03;;;;;;;3.42;1.55;;;11.80;99.90;;;;;;4949603;28;20531;-70
2024/04/03 00:15:29;;;;;;;4.50;1.50;;;11.70;99.90;;;;;;4949523;28;20122;-70
2024/04/03 00:17:55;;;;;;;3.05;1.35;;;11.70;99.90;;;;;;4947763;28;20557;-70
2024/04/03 00:20:24;;;;;;;3.50;1.38;;;11.70;99.90;;;;;;4950636;28;20514;-71
2024/04/03 00:22:50;;;;;;;3.33;1.00;;;11.80;99.90;;;;;;4948696;28;20062;-71
2024/04/03 00:25:17;;;;;;;1.83;1.60;;;11.70;99.90;;;;;;4949427;28;20055;-71
2024/04/03 00:27:43;;;;;;;4.53;1.80;;;11.70;99.90;;;;;;4948640;28;20035;-71
2024/04/03 00:30:09;;;;;;;1.75;1.58;;;11.70;99.90;;;;;;4947477;28;20035;-70
2024/04/03 00:32:35;;;;;;;1.65;1.20;;;11.70;99.90;;;;;;4948646;28;20122;-70
2024/04/03 00:35:01;;;;;;;2.88;1.40;;;11.70;99.90;;;;;;4948853;28;20043;-71
2024/04/03 00:37:29;;;;;;;3.63;1.42;;;11.80;99.90;;;;;;4949895;28;20046;-70
2024/04/03 00:39:56;;;;;;;4.10;1.67;;;11.80;99.90;;;;;;4949769;28;20041;-71
2024/04/03 00:42:22;;;;;;;3.38;1.92;;;11.70;99.90;;;;;;4948265;28;20487;-70
2024/04/03 00:44:49;;;;;;;2.13;1.70;;;11.70;99.90;;;;;;4947656;28;20039;-71
2024/04/03 00:47:15;;;;;;;2.63;1.52;;;11.70;99.90;;;;;;4948717;28;20696;-71
2024/04/03 00:49:43;;;;;;;3.22;1.70;;;11.70;99.90;;;;;;4947867;28;20462;-71
2024/04/03 00:52:10;;;;;;;4.88;2.00;;;11.70;99.90;;;;;;4948957;28;20055;-71
2024/04/03 00:54:36;;;;;;;1.65;1.55;;;11.80;99.90;;;;;;4948657;28;20089;-71
2024/04/03 00:57:02;;;;;;;3.35;1.55;;;11.80;99.90;;;;;;4949049;28;20790;-71
2024/04/03 00:59:28;;;;;;;3.88;1.73;;;11.90;99.90;;;;;;4948032;28;20025;-71
2024/04/03 01:01:54;;;;;;;4.35;1.75;;;11.90;99.90;;;;;;4948739;28;20039;-70
2024/04/03 01:04:20;;;;;;;3.00;2.00;;;11.90;99.90;;;;;;4947380;28;20090;-71
2024/04/03 01:06:45;;;;;;;3.80;1.92;;;11.80;99.90;;;;;;4949244;28;20035;-71
2024/04/03 01:09:11;;;;;;;3.15;2.05;;;11.70;99.90;;;;;;4947475;28;20107;-71
2024/04/03 01:11:37;;;;;;;4.28;1.80;;;11.80;99.90;;;;;;4948323;28;20027;-71
2024/04/03 01:14:03;;;;;;;6.75;1.85;;;11.90;99.90;;;;;;4948513;28;20031;-71
2024/04/03 01:16:28;;;;;;;3.55;1.77;;;11.90;99.90;;;;;;4948698;28;20045;-71
2024/04/03 01:18:54;;;;;;;7.95;2.10;;;11.90;99.90;;;;;;4948020;28;20127;-69
2024/04/03 01:21:20;;;;;;;4.10;1.90;;;12.00;99.90;;;;;;4949570;28;20066;-71
2024/04/03 01:23:52;;;;;;;6.07;1.80;;;12.00;99.90;;;;;;4945972;28;20133;-71
2024/04/03 01:26:18;;;;;;;2.90;1.63;;;12.10;99.90;;;;;;4949756;28;20035;-71
2024/04/03 01:28:44;;;;;;;2.58;1.90;;;12.00;99.90;;;;;;4948270;28;20043;-71
2024/04/03 01:31:09;;;;;;;4.43;2.00;;;12.10;99.90;;;;;;4947712;28;20184;-71
2024/04/03 01:33:35;;;;;;;2.83;1.70;;;12.10;99.90;;;;;;4948525;28;20058;-71
2024/04/03 01:36:01;;;;;;;4.18;1.80;;;12.10;99.90;;;;;;4946728;28;20753;-71
2024/04/03 01:38:26;;;;;;;4.30;2.10;;;12.00;99.90;;;;;;4947793;28;20134;-71
2024/04/03 01:40:53;;;;;;;3.47;1.75;;;12.00;99.90;;;;;;4946924;28;20098;-72
2024/04/03 01:43:19;;;;;;;2.90;2.20;;;12.00;99.90;;;;;;4947082;28;20031;-71
2024/04/03 01:45:44;;;;;;;3.55;2.08;;;12.00;99.90;;;;;;4947186;28;20399;-71
2024/04/03 01:48:10;;;;;;;7.30;2.60;;;12.00;99.90;;;;;;4947519;28;20058;-71
2024/04/03 01:50:38;;;;;;;4.70;2.38;;;12.00;99.90;;;;;;4947344;28;20046;-70
2024/04/03 01:53:05;;;;;;;4.43;2.05;;;11.80;99.90;;;;;;4949008;28;20058;-70
2024/04/03 01:55:31;;;;;;;4.43;2.22;;;11.90;99.90;;;;;;4947103;28;20734;-71
2024/04/03 01:57:57;;;;;;;6.70;2.47;;;11.90;99.90;;;;;;4948442;28;20511;-71
2024/04/03 02:00:23;;;;;;;2.92;2.22;;;11.80;99.90;;;;;;4947900;28;20031;-71
2024/04/03 02:02:48;;;;;;;4.10;2.08;;;11.80;99.90;;;;;;4948569;28;20035;-70
2024/04/03 02:05:14;;;;;;;4.35;2.20;;;11.80;99.90;;;;;;4947326;28;20689;-70
2024/04/03 02:07:40;;;;;;;6.72;2.33;;;11.80;99.90;;;;;;4948405;28;20042;-71
2024/04/03 02:10:06;;;;;;;3.97;2.40;;;11.90;99.90;;;;;;4947711;28;20027;-70
2024/04/03 02:12:32;;;;;;;4.63;2.67;;;11.90;99.90;;;;;;4948400;28;20406;-71
2024/04/03 02:14:58;;;;;;;5.55;2.50;;;11.90;99.90;;;;;;4946640;28;20038;-71
2024/04/03 02:17:24;;;;;;;4.70;2.33;;;11.90;99.90;;;;;;4947547;28;20074;-70
2024/04/03 02:19:49;;;;;;;6.68;2.20;;;11.90;99.90;;;;;;4945873;28;20031;-71
2024/04/03 02:22:15;;;;;;;3.58;2.45;;;11.80;99.90;;;;;;4947946;28;20039;-71
2024/04/03 02:24:41;;;;;;;5.85;2.75;;;11.90;99.90;;;;;;4946522;28;20027;-71
2024/04/03 02:27:07;;;;;;;3.38;2.60;;;11.90;99.90;;;;;;4946839;28;20081;-70
2024/04/03 02:29:33;;;;;;;7.82;2.97;;;11.90;99.90;;;;;;4947232;28;20479;-70
2024/04/03 02:31:59;;;;;;;5.80;2.80;;;11.80;99.90;;;;;;4947100;28;20040;-70
2024/04/03 02:34:24;;;;;;;4.97;2.53;;;11.90;99.90;;;;;;4946593;28;20095;-71
2024/04/03 02:36:50;;;;;;;6.65;2.97;;;12.00;99.90;;;;;;4948393;28;20039;-70
2024/04/03 02:39:16;;;;;;;6.95;2.58;;;12.00;99.90;;;;;;4945377;28;20027;-71
2024/04/03 02:41:42;;;;;;;5.70;3.00;;;12.00;99.90;;;;;;4947824;28;20818;-71
2024/04/03 02:44:07;;;;;;;9.38;2.90;;;12.00;99.90;;;;;;4947804;28;20776;-71
2024/04/03 02:46:34;;;;;;;3.42;2.63;;;12.00;99.90;;;;;;4947590;28;20073;-71
2024/04/03 02:48:59;;;;;;;7.05;2.90;;;12.00;99.90;;;;;;4946239;28;20111;-71
2024/04/03 02:51:25;;;;;;;3.67;2.75;;;11.90;99.90;;;;;;4946831;28;20043;-71
2024/04/03 02:53:51;;;;;;;9.27;2.92;;;11.90;99.90;;;;;;4946668;28;20031;-71
2024/04/03 02:56:17;;;;;;;4.70;2.75;;;11.90;99.90;;;;;;4947501;28;20032;-71
2024/04/03 02:58:45;;;;;;;5.57;2.78;;;11.90;99.90;;;;;;4946950;28;20490;-70
2024/04/03 03:01:11;;;;;;;5.97;2.80;;;11.90;99.90;;;;;;4946810;28;20027;-70
2024/04/03 03:03:37;;;;;;;6.65;2.78;;;11.90;99.90;;;;;;4947616;28;20031;-71
2024/04/03 03:06:04;;;;;;;9.50;3.20;;;12.00;99.90;;;;;;4946756;28;20062;-70
2024/04/03 03:08:32;;;;;;;6.53;3.20;;;12.00;99.90;;;;;;4948108;28;20031;-71
2024/04/03 03:10:59;;;;;;;7.90;3.10;;;12.10;99.90;;;;;;4947028;28;20027;-71
2024/04/03 03:13:26;;;;;;;6.75;2.72;;;12.00;99.90;;;;;;4948181;28;20707;-71
2024/04/03 03:16:00;;;;;;;3.47;2.45;;;12.00;99.90;;;;;;4947171;28;20039;-71
2024/04/03 03:18:28;;;;;;;5.50;3.15;;;12.00;99.90;;;;;;4948028;28;20024;-72
2024/04/03 03:20:54;;;;;;;3.97;2.58;;;12.00;99.90;;;;;;4950081;28;20027;-70
2024/04/03 03:23:20;;;;;;;9.18;3.00;;;12.00;99.90;;;;;;4946454;28;20036;-71
2024/04/03 03:25:47;;;;;;;4.80;2.53;;;12.00;99.90;;;;;;4946663;28;20399;-71
2024/04/03 03:28:14;;;;;;;4.15;2.80;;;11.90;99.90;;;;;;4966033;28;20083;-70
2024/04/03 03:30:40;;;;;;;4.20;2.70;;;12.00;99.90;;;;;;4948563;28;20451;-71
2024/04/03 03:33:06;;;;;;;7.00;2.60;;;12.00;99.90;;;;;;4950759;28;20031;-71
2024/04/03 03:35:32;;;;;;;8.27;2.92;;;11.90;99.90;;;;;;4948891;28;20570;-71
2024/04/03 03:37:58;;;;;;;6.57;2.88;;;11.80;99.90;;;;;;4950488;28;20512;-71
2024/04/03 03:40:25;;;;;;;7.82;2.75;;;11.80;99.90;;;;;;4949542;28;20019;-70
2024/04/03 03:42:51;;;;;;;3.58;2.67;;;11.80;99.90;;;;;;4950722;28;20035;-71
2024/04/03 03:45:21;;;;;;;3.50;2.63;;;11.80;99.90;;;;;;4947601;28;20031;-71
2024/04/03 03:47:47;;;;;;;6.72;3.00;;;11.80;99.90;;;;;;4950219;28;20513;-71
2024/04/03 03:52:59;;;;;;;8.80;3.10;;;11.90;99.90;;;;;;4950091;28;20049;-71
2024/04/03 03:55:31;;;;;;;5.40;2.90;;;11.80;99.90;;;;;;4949572;28;20061;-72
2024/04/03 03:57:58;;;;;;;8.02;2.55;;;11.70;99.90;;;;;;4949176;28;20198;-71
2024/04/03 04:00:24;;;;;;;6.50;2.78;;;11.80;99.90;;;;;;4950103;28;20721;-70
2024/04/03 04:02:51;;;;;;;7.25;3.15;;;11.80;99.90;;;;;;4949593;28;20035;-71
2024/04/03 04:05:20;;;;;;;6.55;2.58;;;11.70;99.90;;;;;;4950430;28;20030;-71
2024/04/03 04:07:47;;;;;;;6.85;3.30;;;11.70;99.90;;;;;;4949805;28;20138;-70
2024/04/03 04:10:13;;;;;;;5.65;3.05;;;11.60;99.90;;;;;;4950121;28;20042;-70
2024/04/03 04:12:39;;;;;;;4.60;3.00;;;11.60;99.90;;;;;;4949305;28;20505;-71
2024/04/03 04:15:07;;;;;;;6.47;3.25;;;11.60;99.90;;;;;;4949870;28;20070;-70
2024/04/03 04:17:33;;;;;;;9.02;2.92;;;11.60;99.90;;;;;;4947865;28;20691;-71
2024/04/03 04:19:58;;;;;;;5.80;2.88;;;11.70;99.90;;;;;;4948261;28;20035;-71
2024/04/03 04:22:24;;;;;;;4.90;3.08;;;11.70;99.90;;;;;;4949551;28;20059;-71
2024/04/03 04:24:50;;;;;;;7.30;3.53;;;11.80;99.90;;;;;;4947253;28;20043;-70
2024/04/03 04:27:16;;;;;;;8.80;3.15;;;11.80;99.90;;;;;;4949262;28;20146;-70
2024/04/03 04:29:42;;;;;;;3.95;2.78;;;11.80;99.90;;;;;;4948396;28;20586;-70
2024/04/03 04:32:09;;;;;;;6.80;3.53;;;11.80;99.90;;;;;;4948563;28;20026;-70
2024/04/03 04:34:39;;;;;;;9.30;3.20;;;11.80;99.90;;;;;;4947581;28;20037;-71
2024/04/03 04:37:05;;;;;;;6.68;3.22;;;11.80;99.90;;;;;;4948004;28;20038;-70
2024/04/03 04:39:31;;;;;;;4.50;2.75;;;11.80;99.90;;;;;;4946832;28;20035;-70
2024/04/03 04:41:57;;;;;;;2.90;2.30;;;11.90;99.90;;;;;;4946888;28;20035;-71
2024/04/03 04:44:23;;;;;;;6.65;3.28;;;12.00;99.90;;;;;;4946203;28;20039;-70
2024/04/03 04:46:54;;;;;;;5.43;2.80;;;12.00;99.90;;;;;;4948138;28;20093;-71
2024/04/03 04:49:21;;;;;;;6.43;2.80;;;12.00;99.90;;;;;;4948094;28;20179;-71
2024/04/03 04:51:47;;;;;;;6.18;2.63;;;12.10;99.90;;;;;;4948163;28;20080;-71
2024/04/03 04:54:17;;;;;;;6.65;3.00;;;12.10;99.90;;;;;;4949663;28;20050;-71
2024/04/03 04:56:43;;;;;;;7.13;3.03;;;12.10;99.90;;;;;;4947923;28;20035;-71
2024/04/03 04:59:10;;;;;;;5.53;2.42;;;12.20;99.90;;;;;;4950085;28;20102;-71
2024/04/03 05:01:38;;;;;;;13.15;2.97;;;12.20;99.90;;;;;;4946459;28;20094;-71
2024/04/03 05:04:04;;;;;;;5.88;1.98;;;12.20;99.90;;;;;;4949607;28;20027;-71
2024/04/03 05:06:30;;;;;;;3.40;1.42;;;12.30;99.90;;;;;;4949167;28;20085;-71
2024/04/03 05:08:57;;;;;;;3.08;1.30;;;12.20;99.90;;;;;;4948949;28;20934;-71
2024/04/03 05:11:23;;;;;;;3.83;1.35;;;12.20;99.90;;;;;;4949097;28;20034;-71
2024/04/03 05:13:48;;;;;;;6.53;1.20;;;12.00;99.90;;;;;;4948754;28;20046;-71
2024/04/03 05:16:19;;;;;;;4.40;0.90;;;12.00;99.90;;;;;;4948468;28;20035;-71
2024/04/03 05:18:45;;;;;;;2.72;0.50;;;11.90;99.90;;;;;;4948286;28;20039;-71
2024/04/03 05:21:11;;;;;;;0.75;0.60;;;11.80;99.90;;;;;;4947788;28;20027;-71
2024/04/03 05:23:37;;;;;;;1.38;0.82;;;11.70;99.90;;;;;;4948385;28;20821;-71
2024/04/03 05:26:12;;;;;;;3.90;1.38;;;11.70;99.90;;;;;;4947439;28;20035;-71
2024/04/03 05:28:38;;;;;;;1.67;0.93;;;11.60;99.90;;;;;;4948380;28;20045;-71
2024/04/03 05:31:23;;;;;;;0.90;0.90;;;11.50;99.90;;;;;;4948779;28;20038;-71
2024/04/03 05:33:50;;;;;;;3.15;1.17;;;11.50;99.90;;;;;;4947519;28;20050;-71
2024/04/03 05:36:16;;;;;;;3.30;1.58;;;11.50;99.90;;;;;;4947821;28;20035;-70
2024/04/03 05:38:42;;;;;;;4.60;1.70;;;11.50;99.90;;;;;;4948177;28;20178;-71
2024/04/03 05:41:10;;;;;;;3.58;1.60;;;11.50;99.90;;;;;;4947117;28;20028;-71
2024/04/03 05:43:36;;;;;;;3.40;2.08;;;11.50;99.90;;;;;;4947634;28;20291;-70
2024/04/03 05:46:02;;;;;;;2.70;2.05;;;11.50;99.90;;;;;;4947738;28;20058;-71
2024/04/03 05:48:29;;;;;;;4.88;2.28;;;11.50;99.90;;;;;;4947595;28;20039;-71
2024/04/03 05:51:07;;;;;;;5.28;2.30;;;11.50;99.90;;;;;;4955212;28;20061;-71
2024/04/03 05:53:34;;;;;;;5.07;2.20;;;11.50;99.90;;;;;;4948953;28;20042;-71
2024/04/03 05:56:03;;;;;;;6.18;2.60;;;11.60;99.90;;;;;;4947060;28;20042;-71
2024/04/03 05:58:29;;;;;;;3.50;2.25;;;11.70;99.90;;;;;;4948817;28;20508;-71
2024/04/03 06:00:59;;;;;;;3.30;2.10;;;11.70;99.90;;;;;;4946702;28;20039;-70
2024/04/03 06:03:25;;;;;;;5.53;1.90;;;11.70;99.90;;;;;;4948997;28;20035;-71
2024/04/03 06:05:54;;;;;;;5.03;2.00;;;11.80;99.90;;;;;;4946901;28;20049;-71
2024/04/03 06:08:20;;;;;;;4.05;2.20;;;11.80;99.90;;;;;;4946821;28;20495;-71
2024/04/03 06:10:46;;;;;;;2.97;2.08;;;11.90;99.90;;;;;;4945046;28;20043;-73
2024/04/03 06:13:12;;;;;;;4.32;2.30;;;11.90;99.90;;;;;;4946665;28;20566;-71
2024/04/03 06:15:38;;;;;;;4.82;1.92;;;12.00;99.90;;;;;;4947225;28;20042;-71
2024/04/03 06:18:04;;;;;;;5.22;1.63;;;12.00;99.90;;;;;;4946643;28;20037;-71
2024/04/03 06:20:30;;;;;;;3.42;1.63;;;12.00;99.90;;;;;;4947328;28;20038;-71
2024/04/03 06:22:56;;;;;;;4.20;2.00;;;12.10;99.90;;;;;;4948679;28;20027;-71
2024/04/03 06:25:22;;;;;;;3.60;1.67;;;12.20;99.90;;;;;;4947294;28;20030;-70
2024/04/03 06:27:48;;;;;;;5.68;1.77;;;12.20;99.90;;;;;;4948523;28;20043;-71
2024/04/03 06:30:14;;;;;;;2.25;2.03;;;12.20;99.90;;;;;;4946728;28;20042;-71
2024/04/03 06:32:41;;;;;;;4.43;1.73;;;12.20;99.90;;;;;;4947671;28;20379;-71
2024/04/03 06:35:08;;;;;;;2.63;1.33;;;12.20;99.90;;;;;;4946161;28;20031;-71
2024/04/03 06:37:34;;;;;;;4.38;1.50;;;12.20;99.90;;;;;;4947775;28;20027;-71
2024/04/03 06:40:00;;;;;;;3.35;1.90;;;12.10;99.90;;;;;;4946122;28;20047;-71
2024/04/03 06:42:26;;;;;;;1.70;1.50;;;12.20;99.90;;;;;;4948765;28;20031;-72
2024/04/03 06:44:53;;;;;;;3.33;1.88;;;12.20;99.90;;;;;;4946798;28;20070;-69
2024/04/03 06:47:18;;;;;;;2.92;1.80;;;12.10;99.90;;;;;;4948618;28;20147;-70
2024/04/03 06:49:44;;;;;;;7.32;1.98;;;12.10;99.90;;;;;;4946942;28;20394;-71
2024/04/03 06:52:10;;;;;;;4.32;2.35;;;12.10;99.90;;;;;;4947797;28;20039;-72
2024/04/03 06:54:35;;;;;;;6.25;2.63;;;12.10;99.90;;;;;;4955739;28;20054;-70
2024/04/03 06:57:02;;;;;;;4.85;2.33;;;12.10;99.90;;;;;;4948513;28;20032;-72
2024/04/03 06:59:28;;;;;;;2.55;2.03;;;12.10;99.90;;;;;;4946880;28;20118;-67
2024/04/03 07:01:54;;;;;;;6.07;1.85;;;12.10;99.90;;;;;;4947750;28;20031;-69
2024/04/03 07:04:20;;;;;;;2.75;2.03;;;12.10;99.90;;;;;;4948797;28;20031;-73
2024/04/03 07:06:45;;;;;;;4.18;1.92;;;12.10;99.90;;;;;;4950474;28;20027;-74
2024/04/03 07:09:11;;;;;;;3.67;1.80;;;12.10;99.90;;;;;;4951833;28;20034;-71
2024/04/03 07:11:37;;;;;;;4.63;2.30;;;12.10;99.90;;;;;;4950073;28;20039;-70
2024/04/03 07:14:02;;;;;;;3.13;2.20;;;12.10;99.90;;;;;;4950133;28;20035;-73
2024/04/03 07:16:28;;;;;;;4.75;2.78;;;12.10;99.90;;;;;;4951342;28;20162;-71
2024/04/03 07:18:55;;;;;;;4.18;2.20;;;12.20;99.90;;;;;;4951118;28;20087;-72
2024/04/03 07:21:21;;;;;;;3.63;2.05;;;12.10;99.90;;;;;;4950496;28;20031;-71
2024/04/03 07:23:47;;;;;;;5.15;2.20;;;12.10;99.90;;;;;;4951474;28;20087;-74
2024/04/03 07:26:13;;;;;;;4.57;2.17;;;12.20;99.90;;;;;;4951871;28;20622;-74
2024/04/03 07:28:41;;;;;;;4.53;1.80;;;12.30;99.90;;;;;;4949351;28;20038;-72
2024/04/03 07:31:07;;;;;;;3.25;1.80;;;12.50;99.90;;;;;;4949893;28;20515;-73
2024/04/03 07:33:32;;;;;;;5.15;1.77;;;12.80;99.90;;;;;;4950261;28;20034;-72
2024/04/03 07:36:01;;;;;;;3.05;1.75;;;13.50;99.90;;;;;;4950362;28;20046;-73
2024/04/03 07:38:27;;;;;;;2.95;1.58;;;14.00;99.90;;;;;;4950951;28;20031;-72
2024/04/03 07:40:54;;;;;;;2.00;1.50;;;14.30;99.90;;;;;;4949186;28;20038;-69
2024/04/03 07:43:20;;;;;;;3.75;1.70;;;14.60;99.90;;;;;;4952209;28;20042;-72
2024/04/03 07:45:46;;;;;;;1.88;1.40;;;14.80;99.90;;;;;;4951084;28;20054;-72
2024/04/03 07:48:12;;;;;;;1.80;1.42;;;14.80;99.90;;;;;;4958012;28;20462;-72
2024/04/03 07:50:41;;;;;;;5.05;1.80;;;14.80;99.90;;;;;;4951389;28;20094;-70
2024/04/03 07:53:07;;;;;;;6.20;2.05;;;14.70;99.90;;;;;;4949395;28;20117;-71
2024/04/03 07:55:37;;;;;;;5.53;2.50;;;14.60;99.90;;;;;;4951185;28;20035;-71
2024/04/03 07:58:03;;;;;;;7.95;5.72;;;14.70;99.90;;;;;;4949859;28;20039;-72
2024/04/03 08:00:29;;;;;;;22.08;11.98;;;14.90;99.90;;;;;;4950660;28;20168;-72
2024/04/03 08:02:55;;;;;;;29.05;18.30;;;15.00;99.90;;;;;;4950222;28;20035;-72
2024/04/03 08:05:21;;;;;;;15.63;11.10;;;15.20;99.90;;;;;;4948995;28;20059;-72
2024/04/03 08:07:46;;;;;;;13.18;8.70;;;15.30;99.90;;;;;;4950168;28;20027;-72
2024/04/03 08:10:12;;;;;;;12.07;6.95;;;15.30;99.90;;;;;;4949140;28;20035;-71
2024/04/03 08:12:40;;;;;;;9.63;4.13;;;15.20;99.90;;;;;;4955914;28;20422;-72
2024/04/03 08:15:11;;;;;;;8.65;4.65;;;15.20;99.90;;;;;;4950780;28;20833;-72
2024/04/03 08:17:38;;;;;;;4.70;3.08;;;15.10;99.90;;;;;;4954256;28;20085;-73
2024/04/03 08:20:04;;;;;;;6.60;2.90;;;15.10;99.90;;;;;;4955060;28;20777;-72
2024/04/03 08:22:30;;;;;;;10.20;4.32;;;14.90;99.90;;;;;;4949756;28;20027;-70
2024/04/03 08:24:56;;;;;;;12.73;5.88;;;14.80;99.90;;;;;;4958371;28;20038;-67
2024/04/03 08:27:22;;;;;;;13.73;7.30;;;14.80;99.90;;;;;;4948415;28;20032;-71
2024/04/03 08:29:49;;;;;;;12.07;5.40;;;14.70;99.90;;;;;;4949007;28;20043;-72
2024/04/03 08:32:16;;;;;;;7.95;3.67;;;14.80;99.90;;;;;;4948911;28;20038;-72
2024/04/03 08:34:45;;;;;;;9.32;4.82;;;14.80;99.90;;;;;;4947918;28;20057;-72
2024/04/03 08:37:12;;;;;;;11.48;3.67;;;14.70;99.90;;;;;;4949222;28;20399;-71
2024/04/03 08:39:39;;;;;;;10.30;4.32;;;14.70;99.90;;;;;;4948051;28;20074;-71
2024/04/03 08:42:05;;;;;;;25.85;9.00;;;14.70;99.90;;;;;;4947535;28;20031;-71
2024/04/03 08:44:32;;;;;;;20.27;8.57;;;14.70;99.90;;;;;;4948694;28;20688;-71
2024/04/03 08:46:59;;;;;;;12.27;4.90;;;14.70;99.90;;;;;;4948495;28;20039;-72
2024/04/03 08:49:32;;;;;;;10.30;3.47;;;14.70;99.90;;;;;;4949632;28;20032;-73
2024/04/03 08:52:06;;;;;;;7.78;3.05;;;14.70;99.90;;;;;;4948054;28;20039;-72
2024/04/03 08:54:33;;;;;;;169.25;69.53;;;14.70;99.90;;;;;;4948427;28;20043;-71
2024/04/03 08:57:01;;;;;;;48.60;29.00;;;14.80;99.90;;;;;;4947726;28;20027;-72
2024/04/03 08:59:31;;;;;;;21.88;14.85;;;14.80;99.90;;;;;;4948276;28;20533;-72
2024/04/03 09:01:57;;;;;;;8.00;5.90;;;14.90;99.90;;;;;;4946558;28;20058;-72
2024/04/03 09:04:23;;;;;;;13.23;8.60;;;14.90;99.90;;;;;;4947912;28;20059;-73
2024/04/03 09:06:49;;;;;;;6.22;4.18;;;15.10;99.90;;;;;;4948364;28;20137;-72
2024/04/03 09:09:17;;;;;;;8.85;3.35;;;15.20;99.90;;;;;;4947663;28;20043;-72
2024/04/03 09:11:43;;;;;;;7.00;3.53;;;15.20;99.90;;;;;;4947435;28;20043;-72
2024/04/03 09:14:09;;;;;;;3.55;2.50;;;15.20;99.90;;;;;;4946647;28;20029;-75
2024/04/03 09:16:35;;;;;;;8.73;3.55;;;15.30;99.90;;;;;;4947146;28;20038;-72
2024/04/03 09:19:06;;;;;;;5.53;3.05;;;15.40;99.90;;;;;;4948237;28;20039;-72
2024/04/03 09:21:32;;;;;;;7.10;3.92;;;15.60;99.90;;;;;;4947926;28;20028;-71
2024/04/03 09:23:58;;;;;;;6.50;3.40;;;15.80;99.90;;;;;;4951074;28;20829;-71
2024/04/03 09:26:25;;;;;;;6.60;3.50;;;16.10;99.90;;;;;;4947691;28;20030;-71
2024/04/03 09:29:18;;;;;;;4.93;3.20;;;16.20;99.90;;;;;;4948445;28;20035;-71
2024/04/03 09:31:44;;;;;;;9.20;3.10;;;16.40;99.90;;;;;;4943860;28;20062;-74
2024/04/03 09:34:11;;;;;;;6.43;2.67;;;16.40;99.90;;;;;;4947951;28;20031;-72
2024/04/03 09:36:38;;;;;;;6.53;3.33;;;16.50;99.90;;;;;;4946015;28;20043;-72
2024/04/03 09:39:04;;;;;;;5.95;2.83;;;16.40;99.90;;;;;;4947246;28;20039;-72
2024/04/03 09:41:31;;;;;;;4.75;3.00;;;16.20;99.90;;;;;;4947601;28;20043;-72
2024/04/03 09:44:02;;;;;;;6.53;3.30;;;16.10;99.90;;;;;;4947067;28;20760;-73
2024/04/03 09:46:41;;;;;;;5.82;3.20;;;16.10;99.90;;;;;;4947060;28;20574;-73
2024/04/03 09:49:09;;;;;;;4.78;2.97;;;16.00;99.90;;;;;;4946065;28;20097;-72
2024/04/03 09:51:35;;;;;;;4.75;3.08;;;15.80;99.90;;;;;;4947609;28;20059;-72
2024/04/03 09:54:02;;;;;;;6.97;3.67;;;15.70;99.90;;;;;;4948491;28;20066;-72
2024/04/03 09:56:28;;;;;;;5.82;3.00;;;15.60;99.90;;;;;;4947487;28;20094;-72
2024/04/03 09:58:54;;;;;;;6.88;2.75;;;15.50;99.90;;;;;;4947394;28;20152;-73
2024/04/03 10:01:20;;;;;;;8.70;3.25;;;15.40;99.90;;;;;;4948901;28;20043;-73
2024/04/03 10:03:46;;;;;;;11.43;3.78;;;15.30;99.90;;;;;;4945904;28;20038;-69
2024/04/03 10:06:13;;;;;;;6.07;3.13;;;15.20;99.90;;;;;;4947849;28;20050;-71
2024/04/03 10:08:41;;;;;;;5.65;2.83;;;15.00;99.90;;;;;;4947111;28;20121;-66
2024/04/03 10:11:08;;;;;;;7.78;3.53;;;14.90;99.90;;;;;;4947458;28;20795;-69
2024/04/03 10:13:36;;;;;;;6.22;3.50;;;14.80;99.90;;;;;;4946631;28;20039;-73
2024/04/03 10:16:10;;;;;;;3.83;2.88;;;14.70;99.90;;;;;;4954399;28;20519;-72
2024/04/03 10:18:38;;;;;;;4.25;3.25;;;14.60;99.90;;;;;;4946699;28;20051;-69
2024/04/03 10:21:05;;;;;;;6.80;3.70;;;14.60;99.90;;;;;;4944738;28;20514;-68
2024/04/03 10:23:40;;;;;;;6.50;3.45;;;14.60;99.90;;;;;;4946316;28;20043;-67
2024/04/03 10:26:07;;;;;;;7.20;3.22;;;14.60;99.90;;;;;;4947395;28;20186;-69
2024/04/03 10:28:33;;;;;;;6.70;3.63;;;14.50;99.90;;;;;;4946759;28;20570;-71
2024/04/03 10:30:59;;;;;;;7.10;3.70;;;14.50;99.90;;;;;;4945446;28;20115;-70
2024/04/03 10:33:28;;;;;;;5.30;3.53;;;14.50;99.90;;;;;;4945789;28;20027;-69
2024/04/03 10:35:54;;;;;;;6.47;3.95;;;14.60;99.90;;;;;;4945737;28;20043;-68
2024/04/03 10:38:20;;;;;;;6.53;3.28;;;14.60;99.90;;;;;;4947753;28;20043;-68
2024/04/03 10:40:47;;;;;;;3.78;2.85;;;14.50;99.90;;;;;;4949912;28;20436;-68
2024/04/03 10:43:13;;;;;;;7.57;3.88;;;14.50;99.90;;;;;;4948735;28;20036;-69
2024/04/03 10:45:39;;;;;;;11.20;4.72;;;14.50;99.90;;;;;;4948781;28;20046;-66
2024/04/03 10:48:11;;;;;;;9.50;3.97;;;14.60;99.90;;;;;;4950358;28;20035;-67
2024/04/03 10:50:37;;;;;;;7.55;3.65;;;14.60;99.90;;;;;;4950057;28;20027;-67
2024/04/03 10:53:04;;;;;;;5.25;3.75;;;14.60;99.90;;;;;;4949452;28;20039;-71
2024/04/03 10:55:31;;;;;;;9.48;3.55;;;14.60;99.90;;;;;;4950932;28;20049;-68
2024/04/03 10:58:04;;;;;;;5.43;3.20;;;14.60;99.90;;;;;;4949610;28;20031;-68
2024/04/03 11:00:33;;;;;;;7.60;4.47;;;14.70;99.90;;;;;;4950953;28;20031;-66
2024/04/03 11:03:02;;;;;;;10.27;5.10;;;14.70;99.90;;;;;;4951133;28;20035;-66
2024/04/03 11:05:29;;;;;;;8.00;4.40;;;14.70;99.90;;;;;;4950826;28;20917;-71
2024/04/03 11:07:58;;;;;;;6.82;3.83;;;14.70;99.90;;;;;;4950559;28;20035;-66
2024/04/03 11:10:25;;;;;;;12.40;4.45;;;14.70;99.90;;;;;;4949346;28;20034;-73
2024/04/03 11:13:06;;;;;;;8.30;4.47;;;14.70;99.90;;;;;;4949962;28;20045;-74
2024/04/03 11:15:34;;;;;;;7.25;3.83;;;14.80;99.90;;;;;;4949742;28;20590;-73
2024/04/03 11:18:00;;;;;;;11.68;3.83;;;14.80;99.90;;;;;;4950643;28;20461;-76
2024/04/03 11:20:29;;;;;;;9.90;3.70;;;14.80;99.90;;;;;;4949623;28;20145;-74
2024/04/03 11:22:56;;;;;;;8.45;3.22;;;14.60;99.90;;;;;;4949895;28;20032;-77
2024/04/03 11:25:29;;;;;;;5.72;3.67;;;14.70;99.90;;;;;;4940969;28;20042;-73
2024/04/03 11:27:59;;;;;;;10.25;4.20;;;14.70;99.90;;;;;;4950139;28;20027;-72
2024/04/03 11:30:30;;;;;;;8.63;4.47;;;14.80;99.90;;;;;;4950104;28;20062;-73
2024/04/03 11:32:59;;;;;;;11.07;4.53;;;14.80;99.90;;;;;;4949720;28;20031;-71
2024/04/03 11:35:25;;;;;;;7.22;3.95;;;14.90;99.90;;;;;;4949832;28;20035;-72
2024/04/03 11:37:51;;;;;;;16.42;4.90;;;14.80;99.90;;;;;;4949198;28;20081;-76
2024/04/03 11:40:17;;;;;;;7.20;4.03;;;14.80;99.90;;;;;;4950885;28;20527;-73
2024/04/03 11:42:43;;;;;;;6.00;4.25;;;14.60;99.90;;;;;;4950155;28;20069;-73
2024/04/03 11:45:09;;;;;;;10.60;4.10;;;14.60;99.90;;;;;;4950804;28;20482;-73
2024/04/03 11:47:36;;;;;;;12.73;5.00;;;14.60;99.90;;;;;;4951779;28;20043;-73
2024/04/03 11:50:03;;;;;;;9.57;4.60;;;14.60;99.90;;;;;;4950525;28;20035;-69
2024/04/03 11:52:30;;;;;;;7.25;4.22;;;14.70;99.90;;;;;;4950075;28;20026;-69
2024/04/03 11:54:56;;;;;;;7.60;3.97;;;14.80;99.90;;;;;;4950698;28;20125;-74
2024/04/03 11:57:22;;;;;;;13.10;4.75;;;14.80;99.90;;;;;;4950264;28;20034;-74
2024/04/03 11:59:50;;;;;;;13.60;3.83;;;14.90;99.90;;;;;;4950406;28;20133;-74
2024/04/03 12:02:15;;;;;;;9.82;4.25;;;14.90;99.90;;;;;;4947295;28;20038;-68
2024/04/03 12:04:42;;;;;;;8.00;4.22;;;14.90;99.90;;;;;;4947737;28;20398;-74
2024/04/03 12:07:10;;;;;;;12.07;4.03;;;14.90;99.90;;;;;;4948528;28;20089;-76
2024/04/03 12:09:37;;;;;;;8.15;3.72;;;14.90;99.90;;;;;;4947530;28;20506;-67
2024/04/03 12:12:05;;;;;;;8.32;3.78;;;14.90;99.90;;;;;;4949334;28;20146;-75
2024/04/03 12:14:32;;;;;;;9.25;4.07;;;15.00;99.90;;;;;;4950236;28;20190;-71
2024/04/03 12:17:02;;;;;;;8.30;3.63;;;14.90;99.90;;;;;;4950194;28;20054;-73
2024/04/03 12:22:14;;;;;;;10.13;4.00;;;14.90;99.90;;;;;;4948121;28;20024;-73
2024/04/03 12:24:43;;;;;;;6.13;3.25;;;15.00;99.90;;;;;;4947711;28;20053;-72
2024/04/03 12:27:08;;;;;;;8.93;3.42;;;15.00;99.90;;;;;;4950264;28;20114;-73
2024/04/03 12:29:34;;;;;;;11.15;3.67;;;15.10;99.90;;;;;;4948319;28;20035;-72
2024/04/03 12:32:01;;;;;;;8.68;3.42;;;15.10;99.90;;;;;;4949230;28;20043;-72
2024/04/03 12:34:27;;;;;;;13.27;4.38;;;15.30;99.90;;;;;;4950316;28;20035;-72
2024/04/03 12:36:52;;;;;;;12.02;4.15;;;15.30;99.90;;;;;;4949526;28;20070;-71
2024/04/03 12:39:18;;;;;;;8.20;3.95;;;15.30;99.90;;;;;;4947628;28;20439;-71
2024/04/03 12:41:44;;;;;;;10.27;4.00;;;15.40;99.90;;;;;;4948992;28;20028;-71
2024/04/03 12:44:10;;;;;;;8.57;3.65;;;15.40;99.90;;;;;;4949901;28;20832;-76
2024/04/03 12:46:36;;;;;;;13.98;4.50;;;15.30;99.90;;;;;;4948363;28;20033;-75
2024/04/03 12:49:01;;;;;;;6.20;3.35;;;15.30;99.90;;;;;;4949204;28;20419;-74